Record high temperature 35.2°C Record low temperature -28.5°C Record high gust 73.6 km/h Record high average 52.2 km/h Record daily rain 78.0 mm Record low windchill -39.6°C Record high barometer 1049.5 hPa Record low barometer 973.0 hPa
Daily high pressure 1023 hPa Daily low pressure 1022 hPa Daily low windchill 5.4°C Daily high heat index 10.6°C Daily high gust speed 16.9 kmh WNW Daily high average speed 9.3 kmh W
Beaconsfield Home Weather Data WMR-968
LAST READING AT TIME: 09:50 DATE: September 25 2016, time of next update: 09:55
Current WeatherMainly cloudy/Dry Current Temperature 10.6°C (51.1°F), Apparent temp 8.5°C, Apparent temp solar 10.5°C
Maximum Temperature (since midnight)10.6°C at: 09:48 Minimum Temperature (since midnight)6.5°C at: 06:55
Average windspeed (ten minute)4.4 kmh (2.4 kts) Wind Direction (ten minute)WNW (293°)
Windchill Temperature 10.4°C Maximum Gust (last hour)16.9 kmh (9.1 kts) at: 09:33
Maximum Gust (since midnight)16.9 kmh (9.1 kts) at: 09:33 Maximum 1 minute average (since midnight)9.3 kmh (5.1 kts) at: 09:33
Rainfall (last hour)0.0 mm Rainfall (since midnight)0.0 mm (0.00 in.)---
Rainfall This month 21.0 mm (0.83 in.) Rainfall To date this year 513.0 mm (20.20 in.)
Maximum rain per minute (last hour)0.0 mm/min Maximum rain per hour (last 6 hours)0.0 mm/hour
Yesterdays rainfall 0.0 mm DewPoint -5.0°C (Wet Bulb :5.0°C )
Humidity 33 %, Humidex 7.4°C Barometer corrected to msl1023 hPa
Pressure change 0 hPa (last hour) Trend (last hour)STEADY
Pressure change (last 12 hours)+1 hPa Pressure change (last 6 hours)+1 hPa
Current Indoor Temp. 19.2°C
Current Indoor Hum. 44%
Current Solar 90 W/mē
Maximum solar (since midnight) 90 W/mē Minimum solar (since midnight)1000 W/mē
Current 00:00 hours of sunshine today, current sky: Mainly cloudy
Sunshine hours for the year: 35:56 hrs Sunshine hours for the month: 00:36 hrs
Current evapotranspiration rate 1.2 mm per day. Yesterday's reading 2.0




Weather report/warning/Metars

Montreal / Pierre Elliot Trudeau International Airport, Que, Canada (CYUL) 45-28N 073-45W 36M
Sep 25, 2016 - 09:00 AM EDT / 2016.09.25 1300 UTC
Wind: from the NW (310 degrees) at 10 MPH (9 KT):0
Visibility: 30 mile(s):0
Sky conditions: clear
Temperature: 50 F (10 C)
Dew Point: 35 F (2 C)
Relative Humidity: 57%
Pressure (altimeter): 30.2 in. Hg (1022 hPa)
ob: CYUL 251300Z 31009KT 30SM SKC 10/02 A3020 RMK SLP230
cycle: 13
Sherbrooke, Que., Canada (CYSC) 45-24N 071-53W
Sep 25, 2016 - 09:00 AM EDT / 2016.09.25 1300 UTC
Wind: from the WNW (300 degrees) at 12 MPH (10 KT):0
Visibility: 9 mile(s):0
Sky conditions: clear
Temperature: 42 F (6 C)
Dew Point: 39 F (4 C)
Relative Humidity: 86%
Pressure (altimeter): 30.13 in. Hg (1020 hPa)
ob: CYSC 251300Z AUTO 30010KT 9SM CLR 06/04 A3013 RMK SLP213
cycle: 13
St Jovite Automatic Weather Reporting System , Canada (CWJT) 46-04N 074-32W
Sep 25, 2016 - 09:00 AM EDT / 2016.09.25 1300 UTC
Wind: Calm:0
Temperature: 34.3 F (1.3 C)
Dew Point: 34.3 F (1.3 C)
Relative Humidity: 100%
Pressure tendency: 0.00 inches (0.1 hPa) higher than three hours ago
ob: CWJT 251300Z AUTO 00000KT 01/01 RMK AO1 SLP243 T00130013 52001
cycle: 13
Ste Anne De Bell 1, Canada (CWVQ) 45-26N 073-56W
Sep 25, 2016 - 09:00 AM EDT / 2016.09.25 1300 UTC
Wind: from the NW (320 degrees) at 10 MPH (9 KT):0
Temperature: 49.1 F (9.5 C)
Dew Point: 39.7 F (4.3 C)
Relative Humidity: 69%
Pressure tendency: 0.01 inches (0.5 hPa) higher than three hours ago
ob: CWVQ 251300Z AUTO 32009KT 10/04 RMK AO1 SLP232 T00950043 51005
cycle: 13
Montreal / Mirabel, Canada (CYMX) 45-41N 074-02W
Sep 25, 2016 - 09:00 AM EDT / 2016.09.25 1300 UTC
Wind: from the NW (320 degrees) at 8 MPH (7 KT) (direction variable):0
Visibility: 45 mile(s):0
Sky conditions: mostly clear
Temperature: 48 F (9 C)
Dew Point: 37 F (3 C)
Relative Humidity: 66%
Pressure (altimeter): 30.22 in. Hg (1023 hPa)
ob: CYMX 251300Z 32007KT 240V340 45SM FEW080 09/03 A3022 RMK AC1 AC TR SLP236
cycle: 13
L'Acadie, Canada (CWIZ) 45-18N 073-21W
Sep 25, 2016 - 09:00 AM EDT / 2016.09.25 1300 UTC
Wind: from the W (280 degrees) at 6 MPH (5 KT):0
Temperature: 47.8 F (8.8 C)
Dew Point: 41.2 F (5.1 C)
Relative Humidity: 77%
ob: CWIZ 251300Z AUTO 28005KT 09/05 RMK AO1 T00880051
cycle: 13
St Anicet, Canada (CWBZ) 45-07N 074-17W 49M
Sep 25, 2016 - 09:00 AM EDT / 2016.09.25 1300 UTC
Wind: from the WSW (240 degrees) at 7 MPH (6 KT):0
Temperature: 43.7 F (6.5 C)
Dew Point: 41.7 F (5.4 C)
Relative Humidity: 92%
Pressure tendency: 0.01 inches (0.2 hPa) higher than three hours ago
ob: CWBZ 251300Z AUTO 24006KT 07/05 RMK AO1 SLP238 T00650054 51002
cycle: 13
Mount Washington, NH, United States (KMWN) 44-16N 071-18W 1910M
Sep 25, 2016 - 08:52 AM EDT / 2016.09.25 1252 UTC
Wind: from the NW (320 degrees) at 44 MPH (38 KT) gusting to 66 MPH (57 KT):1
Visibility: 1/16 mile(s):0
Sky conditions: obscured
Weather: freezing fog
Temperature: 23 F (-5 C)
Windchill: 3 F (-16 C):1
Dew Point: 23 F (-5 C)
Relative Humidity: 100%
ob: KMWN 251252Z 32038G57KT 1/16SM FZFG VV001 M05/M05 RMK VRY LGT ICG SUN DMLY VSBL
cycle: 13
Vancouver International Air-Port, B. C., Canada (CYVR) 49-11N 123-10W 2M
Sep 25, 2016 - 09:00 AM EDT / 2016.09.25 1300 UTC
Wind: from the ENE (070 degrees) at 8 MPH (7 KT):0
Visibility: 15 mile(s):0
Sky conditions: overcast
Temperature: 55 F (13 C)
Dew Point: 50 F (10 C)
Relative Humidity: 81%
Pressure (altimeter): 30.39 in. Hg (1029 hPa)
ob: CYVR 251300Z 07007KT 15SM BKN048 OVC060 13/10 A3039 RMK SC5SC3 SLP292
cycle: 13



The data is logged at two minute intervals, but there is data recorded every minute.

Use the RELOAD facility on your browser to retrieve the latest data.

Click here for a daily update of the averages/extremes to date for the month

Click here for Real Time Weather



Created by "Weather Display" software version 10.37S at this start time/date 19:13:01 2016-09-23